createdAt,value
2018-07-22T00:01:46.753Z,85.70
2018-07-22T00:04:22.715Z,86.60
2018-07-22T00:07:14.493Z,86.90
2018-07-22T00:09:56.365Z,87.10
2018-07-22T00:12:33.560Z,85.80
2018-07-22T00:15:09.468Z,86.10
2018-07-22T00:17:53.167Z,85.40
2018-07-22T00:20:34.009Z,86.80
2018-07-22T00:23:15.465Z,87.60
2018-07-22T00:25:54.593Z,87.10
2018-07-22T00:28:46.611Z,88.40
2018-07-22T00:34:26.934Z,90.60
2018-07-22T00:36:57.204Z,90.00
2018-07-22T00:39:33.282Z,88.40
2018-07-22T00:42:02.931Z,90.00
2018-07-22T00:44:35.339Z,90.10
2018-07-22T00:47:07.071Z,89.50
2018-07-22T00:49:38.654Z,90.30
2018-07-22T00:52:09.828Z,89.60
2018-07-22T00:54:40.902Z,89.70
2018-07-22T00:57:13.509Z,90.90
2018-07-22T00:59:43.881Z,91.50
2018-07-22T01:02:14.400Z,91.50
2018-07-22T01:04:47.132Z,91.00
2018-07-22T01:07:20.122Z,90.90
2018-07-22T01:09:53.222Z,88.80
2018-07-22T01:12:25.631Z,89.70
2018-07-22T01:17:35.844Z,89.20
2018-07-22T01:20:07.780Z,89.60
2018-07-22T01:22:40.051Z,88.80
2018-07-22T01:25:11.835Z,88.70
2018-07-22T01:27:43.347Z,88.50
2018-07-22T01:30:15.194Z,88.10
2018-07-22T01:32:46.805Z,87.40
2018-07-22T01:35:19.500Z,88.80
2018-07-22T01:37:50.298Z,87.50
2018-07-22T01:40:20.869Z,87.30
2018-07-22T01:42:52.014Z,87.50
2018-07-22T01:45:23.432Z,87.80
2018-07-22T01:47:55.034Z,88.50
2018-07-22T01:50:25.889Z,89.00
2018-07-22T01:52:56.903Z,88.80
2018-07-22T01:55:28.892Z,90.30
2018-07-22T01:57:59.667Z,90.30
2018-07-22T02:00:30.936Z,91.00
2018-07-22T02:03:03.557Z,90.70
2018-07-22T02:05:34.604Z,90.20
2018-07-22T02:08:06.157Z,90.10
2018-07-22T02:10:36.303Z,89.30
2018-07-22T02:13:07.851Z,88.60
2018-07-22T02:15:40.190Z,90.20
2018-07-22T02:18:10.860Z,90.00
2018-07-22T02:20:41.858Z,89.90
2018-07-22T02:23:16.533Z,88.70
2018-07-22T02:28:18.096Z,87.60
2018-07-22T02:30:48.972Z,87.00
2018-07-22T02:33:19.928Z,88.00
2018-07-22T02:35:53.219Z,87.80
2018-07-22T02:38:24.473Z,87.90
2018-07-22T02:40:57.948Z,88.70
2018-07-22T02:43:29.879Z,90.20
2018-07-22T02:46:02.103Z,90.30
2018-07-22T02:48:33.055Z,90.20
2018-07-22T02:51:04.117Z,90.20
2018-07-22T02:53:36.947Z,90.20
2018-07-22T02:56:07.825Z,89.50
2018-07-22T02:58:39.354Z,90.40
2018-07-22T03:01:09.837Z,89.50
2018-07-22T03:03:42.971Z,87.70
2018-07-22T03:06:14.754Z,87.20
2018-07-22T03:08:56.032Z,89.90
2018-07-22T03:11:30.423Z,90.00
2018-07-22T03:14:02.997Z,90.80
2018-07-22T03:16:33.072Z,90.90
2018-07-22T03:19:08.157Z,91.10
2018-07-22T03:21:38.979Z,90.50
2018-07-22T03:34:12.514Z,89.10
2018-07-22T03:36:43.074Z,90.00
2018-07-22T03:39:15.862Z,90.10
2018-07-22T03:41:47.982Z,90.20
2018-07-22T03:44:19.739Z,90.10
2018-07-22T03:46:49.631Z,90.40
2018-07-22T03:49:19.406Z,89.60
2018-07-22T03:51:49.146Z,88.70
2018-07-22T03:54:18.893Z,89.80
2018-07-22T03:56:49.262Z,89.10
2018-07-22T03:59:19.030Z,88.60
2018-07-22T04:01:49.620Z,88.50
2018-07-22T04:04:19.344Z,88.70
2018-07-22T04:12:06.909Z,90.40
2018-07-22T04:14:37.546Z,90.90
2018-07-22T04:17:07.615Z,90.90
2018-07-22T04:19:37.306Z,90.70
2018-07-22T04:22:06.988Z,90.10
2018-07-22T04:24:36.805Z,89.80
2018-07-22T04:27:06.681Z,90.00
2018-07-22T04:29:37.836Z,90.20
2018-07-22T04:32:07.595Z,90.50
2018-07-22T04:34:39.132Z,88.10
2018-07-22T04:37:08.884Z,87.50
2018-07-22T04:39:38.641Z,90.00
2018-07-22T04:44:44.712Z,88.80
2018-07-22T04:47:14.491Z,89.00
2018-07-22T04:49:44.173Z,89.10
2018-07-22T04:52:13.923Z,86.10
2018-07-22T04:54:43.602Z,86.60
2018-07-22T04:57:13.336Z,86.30
2018-07-22T04:59:43.114Z,86.60
2018-07-22T05:02:12.879Z,86.60
2018-07-22T05:04:42.579Z,90.00
2018-07-22T05:07:12.287Z,89.30
2018-07-22T05:09:42.313Z,88.80
2018-07-22T05:12:12.838Z,86.30
2018-07-22T05:14:42.620Z,84.80
2018-07-22T05:17:12.730Z,83.30
2018-07-22T05:19:42.452Z,85.40
2018-07-22T05:24:43.297Z,86.60
2018-07-22T05:27:14.978Z,86.60
2018-07-22T05:29:44.663Z,86.90
2018-07-22T05:32:16.236Z,87.70
2018-07-22T05:34:45.890Z,86.40
2018-07-22T05:37:15.681Z,89.00
2018-07-22T05:39:45.439Z,88.30
2018-07-22T05:42:15.604Z,87.80
2018-07-22T05:44:45.580Z,86.80
2018-07-22T05:47:15.349Z,86.90
2018-07-22T05:49:45.208Z,86.80
2018-07-22T05:52:14.916Z,87.60
2018-07-22T05:54:44.985Z,86.90
2018-07-22T05:57:14.731Z,89.60
2018-07-22T05:59:44.566Z,88.30
2018-07-22T06:02:15.825Z,86.70
2018-07-22T06:04:45.500Z,90.10
2018-07-22T06:12:28.011Z,89.20
2018-07-22T06:14:58.363Z,88.60
2018-07-22T06:17:28.692Z,89.80
2018-07-22T06:22:36.732Z,86.80
2018-07-22T06:25:07.043Z,86.10
2018-07-22T06:32:41.587Z,87.30
2018-07-22T06:35:11.324Z,88.30
2018-07-22T06:37:41.242Z,88.10
2018-07-22T06:40:10.995Z,86.80
2018-07-22T06:42:41.940Z,86.50
2018-07-22T06:45:11.704Z,85.40
2018-07-22T06:47:41.816Z,84.10
2018-07-22T06:50:11.701Z,86.20
2018-07-22T06:52:41.420Z,89.00
2018-07-22T06:55:12.477Z,87.00
2018-07-22T06:57:42.217Z,88.10
2018-07-22T07:00:11.938Z,85.40
2018-07-22T07:02:41.648Z,83.00
2018-07-22T07:05:11.391Z,86.80
2018-07-22T07:07:41.042Z,87.50
2018-07-22T07:10:10.841Z,84.60
2018-07-22T07:12:40.613Z,84.30
2018-07-22T07:15:10.335Z,84.30
2018-07-22T07:17:40.045Z,86.90
2018-07-22T07:20:10.016Z,86.40
2018-07-22T07:25:15.338Z,86.60
2018-07-22T07:27:45.132Z,86.30
2018-07-22T07:32:44.295Z,87.50
2018-07-22T07:35:14.078Z,85.60
2018-07-22T07:37:43.814Z,86.00
2018-07-22T07:40:13.591Z,81.50
2018-07-22T07:42:43.328Z,81.00
2018-07-22T07:45:13.690Z,80.40
2018-07-22T07:47:43.486Z,82.90
2018-07-22T07:50:13.406Z,83.40
2018-07-22T07:52:43.158Z,81.60
2018-07-22T07:55:12.909Z,82.50
2018-07-22T07:57:42.601Z,82.80
2018-07-22T08:00:12.912Z,80.10
2018-07-22T08:02:42.627Z,78.80
2018-07-22T08:05:12.340Z,80.20
2018-07-22T08:07:42.066Z,80.10
2018-07-22T08:10:12.003Z,75.10
2018-07-22T08:12:41.886Z,77.70
2018-07-22T08:15:11.709Z,75.70
2018-07-22T08:17:41.530Z,77.40
2018-07-22T08:20:11.387Z,77.10
2018-07-22T08:22:41.124Z,78.80
2018-07-22T08:25:10.884Z,72.90
2018-07-22T08:27:40.859Z,75.70
2018-07-22T08:30:10.644Z,71.40
2018-07-22T08:32:40.353Z,69.70
2018-07-22T08:35:10.223Z,72.90
2018-07-22T08:37:39.948Z,69.30
2018-07-22T08:40:09.982Z,69.60
2018-07-22T08:42:39.705Z,69.20
2018-07-22T08:45:09.665Z,72.90
2018-07-22T08:55:45.519Z,70.20
2018-07-22T08:58:15.455Z,67.10
2018-07-22T09:05:56.729Z,70.70
2018-07-22T09:08:27.525Z,72.20
2018-07-22T09:11:01.837Z,72.80
2018-07-22T09:13:31.585Z,68.00
2018-07-22T09:16:02.952Z,66.00
2018-07-22T09:18:32.780Z,68.10
2018-07-22T09:21:02.501Z,63.80
2018-07-22T09:23:33.567Z,64.70
2018-07-22T09:26:03.998Z,66.50
2018-07-22T09:28:35.079Z,64.90
2018-07-22T09:31:06.166Z,65.90
2018-07-22T09:33:36.194Z,66.70
2018-07-22T09:36:06.009Z,62.80
2018-07-22T09:38:36.954Z,59.90
2018-07-22T09:41:06.910Z,59.70
2018-07-22T09:43:38.816Z,58.40
2018-07-22T09:46:09.543Z,59.80
2018-07-22T09:48:39.389Z,59.70
2018-07-22T09:51:09.146Z,58.90
2018-07-22T09:53:38.880Z,57.20
2018-07-22T09:56:08.660Z,57.30
2018-07-22T09:58:38.656Z,57.80
2018-07-22T10:01:08.333Z,57.90
2018-07-22T10:03:38.220Z,57.70
2018-07-22T10:06:08.113Z,59.80
2018-07-22T10:08:37.877Z,58.20
2018-07-22T10:11:07.653Z,57.70
2018-07-22T10:13:37.515Z,57.60
2018-07-22T10:16:07.444Z,60.10
2018-07-22T10:18:37.222Z,57.90
2018-07-22T10:21:07.201Z,59.10
2018-07-22T10:23:37.994Z,55.70
2018-07-22T10:26:07.782Z,55.90
2018-07-22T10:28:37.717Z,57.20
2018-07-22T10:31:07.854Z,56.00
2018-07-22T10:33:37.785Z,56.10
2018-07-22T10:36:07.572Z,53.80
2018-07-22T10:38:37.437Z,52.50
2018-07-22T10:41:07.202Z,51.20
2018-07-22T10:43:37.049Z,52.30
2018-07-22T10:46:06.907Z,52.00
2018-07-22T10:48:36.681Z,52.90
2018-07-22T10:51:10.423Z,52.00
2018-07-22T10:53:40.344Z,54.10
2018-07-22T10:56:10.152Z,53.00
2018-07-22T10:58:40.197Z,51.60
2018-07-22T11:01:10.019Z,51.60
2018-07-22T11:06:09.064Z,52.00
2018-07-22T11:08:38.885Z,51.50
2018-07-22T11:11:08.872Z,51.10
2018-07-22T11:13:38.881Z,51.60
2018-07-22T11:16:08.801Z,51.70
2018-07-22T11:18:38.635Z,49.70
2018-07-22T11:21:08.891Z,50.50
2018-07-22T11:23:38.914Z,50.80
2018-07-22T11:26:08.697Z,50.10
2018-07-22T11:28:38.425Z,52.60
2018-07-22T11:31:08.168Z,54.20
2018-07-22T11:33:37.889Z,55.10
2018-07-22T11:36:07.755Z,55.50
2018-07-22T11:38:37.581Z,54.80
2018-07-22T11:41:07.314Z,54.10
2018-07-22T11:43:37.235Z,54.40
2018-07-22T11:46:07.077Z,54.40
2018-07-22T11:48:36.859Z,55.70
2018-07-22T11:53:42.385Z,58.30
2018-07-22T11:56:12.191Z,56.70
2018-07-22T12:01:17.407Z,59.70
2018-07-22T12:03:47.105Z,56.60
2018-07-22T12:06:16.903Z,57.10
2018-07-22T12:08:46.680Z,58.00
2018-07-22T12:11:16.437Z,58.10
2018-07-22T12:13:47.270Z,57.80
2018-07-22T12:16:17.032Z,57.60
2018-07-22T12:18:46.728Z,58.10
2018-07-22T12:21:16.655Z,58.60
2018-07-22T12:23:46.430Z,57.50
2018-07-22T12:26:16.305Z,58.00
2018-07-22T12:28:46.244Z,55.10
2018-07-22T12:31:17.203Z,53.00
2018-07-22T12:33:46.999Z,54.50
2018-07-22T12:36:16.661Z,54.50
2018-07-22T12:38:46.612Z,53.60
2018-07-22T12:41:16.493Z,55.90
2018-07-22T12:46:16.493Z,57.20
2018-07-22T12:48:46.268Z,58.40
2018-07-22T12:51:16.037Z,57.70
2018-07-22T12:53:45.917Z,59.90
2018-07-22T12:58:46.589Z,61.90
2018-07-22T13:01:16.451Z,62.00
2018-07-22T13:03:46.489Z,62.90
2018-07-22T13:06:16.252Z,64.10
2018-07-22T13:08:45.970Z,63.20
2018-07-22T13:11:15.983Z,65.50
2018-07-22T13:13:45.759Z,65.90
2018-07-22T13:16:15.486Z,64.70
2018-07-22T13:18:45.243Z,64.50
2018-07-22T13:21:14.985Z,64.30
2018-07-22T13:23:44.728Z,61.90
2018-07-22T13:31:24.478Z,65.10
2018-07-22T13:33:54.177Z,64.60
2018-07-22T13:41:28.194Z,63.50
2018-07-22T13:43:57.861Z,62.10
2018-07-22T13:49:03.373Z,63.10
2018-07-22T13:51:33.441Z,63.90
2018-07-22T13:54:03.342Z,66.10
2018-07-22T13:56:33.039Z,66.80
2018-07-22T13:59:02.986Z,70.00
2018-07-22T14:01:32.921Z,69.20
2018-07-22T14:04:03.147Z,67.30
2018-07-22T14:06:32.991Z,67.50
2018-07-22T14:09:02.970Z,63.80
2018-07-22T14:11:32.812Z,63.50
2018-07-22T14:14:02.689Z,61.10
2018-07-22T14:16:32.505Z,63.10
2018-07-22T14:19:02.242Z,61.40
2018-07-22T14:21:32.055Z,60.60
2018-07-22T14:24:01.698Z,62.10
2018-07-22T14:26:31.483Z,64.40
2018-07-22T14:31:30.688Z,62.80
2018-07-22T14:36:36.212Z,61.90
2018-07-22T14:39:09.664Z,61.20
2018-07-22T14:44:15.209Z,59.20
2018-07-22T14:46:45.035Z,59.60
2018-07-22T14:49:14.823Z,61.60
2018-07-22T14:51:48.163Z,61.10
2018-07-22T14:54:19.665Z,61.50
2018-07-22T14:56:50.951Z,59.20
2018-07-22T14:59:23.916Z,58.50
2018-07-22T15:01:54.979Z,58.70
2018-07-22T15:04:26.339Z,58.30
2018-07-22T15:06:58.766Z,58.00
2018-07-22T15:09:29.735Z,59.50
2018-07-22T15:12:01.783Z,56.90
2018-07-22T15:14:33.120Z,57.60
2018-07-22T15:17:05.874Z,58.30
2018-07-22T15:19:36.817Z,57.80
2018-07-22T15:22:07.895Z,57.60
2018-07-22T15:24:40.937Z,58.40
2018-07-22T15:27:14.417Z,57.60
2018-07-22T15:29:45.068Z,56.50
2018-07-22T15:32:16.878Z,56.40
2018-07-22T15:34:48.882Z,56.10
2018-07-22T15:39:49.063Z,56.50
2018-07-22T15:42:20.371Z,55.90
2018-07-22T15:44:51.804Z,54.40
2018-07-22T15:47:22.881Z,55.00
2018-07-22T15:52:26.701Z,54.60
2018-07-22T15:54:58.135Z,53.80
2018-07-22T15:57:40.674Z,54.70
2018-07-22T16:00:11.639Z,54.30
2018-07-22T16:02:44.140Z,54.60
2018-07-22T16:05:17.904Z,55.00
2018-07-22T16:07:53.487Z,54.00
2018-07-22T16:10:27.934Z,54.10
2018-07-22T16:13:03.782Z,53.20
2018-07-22T16:15:35.198Z,55.80
2018-07-22T16:20:43.372Z,54.30
2018-07-22T16:23:17.257Z,55.40
2018-07-22T16:25:50.701Z,53.30
2018-07-22T16:28:22.147Z,54.20
2018-07-22T16:30:54.376Z,53.30
2018-07-22T16:33:26.894Z,54.60
2018-07-22T16:35:59.717Z,54.20
2018-07-22T16:38:33.846Z,53.80
2018-07-22T16:41:05.907Z,53.60
2018-07-22T16:43:37.795Z,54.00
2018-07-22T16:46:10.693Z,53.50
2018-07-22T16:48:43.491Z,54.10
2018-07-22T16:51:17.076Z,54.10
2018-07-22T16:53:48.832Z,53.80
2018-07-22T16:56:20.281Z,53.60
2018-07-22T16:58:53.146Z,52.60
2018-07-22T17:01:27.297Z,52.90
2018-07-22T17:03:59.605Z,54.20
2018-07-22T17:09:11.283Z,53.70
2018-07-22T17:11:42.347Z,53.90
2018-07-22T17:14:18.065Z,53.50
2018-07-22T17:16:50.231Z,53.60
2018-07-22T17:19:21.668Z,53.90
2018-07-22T17:21:51.825Z,53.50
2018-07-22T17:24:24.181Z,53.60
2018-07-22T17:26:54.026Z,52.60
2018-07-22T17:29:25.706Z,54.10
2018-07-22T17:31:57.077Z,54.50
2018-07-22T17:34:29.170Z,54.50
2018-07-22T17:39:33.082Z,53.90
2018-07-22T17:42:04.678Z,55.00
2018-07-22T17:44:35.767Z,54.70
2018-07-22T17:47:05.804Z,54.30
2018-07-22T17:52:07.860Z,53.40
2018-07-22T17:54:40.353Z,53.50
2018-07-22T17:57:10.618Z,54.30
2018-07-22T18:02:19.082Z,53.50
2018-07-22T18:04:51.210Z,54.30
2018-07-22T18:07:23.135Z,54.60
2018-07-22T18:09:55.039Z,55.00
2018-07-22T18:12:26.248Z,54.90
2018-07-22T18:14:57.416Z,54.40
2018-07-22T18:17:29.103Z,54.60
2018-07-22T18:20:01.431Z,54.10
2018-07-22T18:22:34.216Z,54.20
2018-07-22T18:25:05.883Z,53.70
2018-07-22T18:27:38.104Z,54.10
2018-07-22T18:30:13.990Z,53.00
2018-07-22T18:32:44.461Z,54.00
2018-07-22T18:35:16.832Z,54.20
2018-07-22T18:37:48.159Z,54.80
2018-07-22T18:42:50.097Z,54.60
2018-07-22T18:45:25.236Z,54.60
2018-07-22T18:50:31.032Z,54.80
2018-07-22T18:58:11.080Z,54.90
2018-07-22T19:00:44.540Z,54.50
2018-07-22T19:11:12.723Z,55.30
2018-07-22T19:14:06.921Z,55.10
2018-07-22T19:16:40.816Z,57.40
2018-07-22T19:19:13.483Z,56.70
2018-07-22T19:21:47.969Z,56.30
2018-07-22T19:24:17.915Z,55.20
2018-07-22T19:26:52.568Z,55.20
2018-07-22T19:29:25.258Z,55.40
2018-07-22T19:31:57.846Z,55.70
2018-07-22T19:34:29.289Z,57.30
2018-07-22T19:37:01.582Z,57.50
2018-07-22T19:39:35.826Z,57.20
2018-07-22T19:42:06.479Z,56.70
2018-07-22T19:44:46.446Z,56.40
2018-07-22T19:47:17.984Z,55.90
2018-07-22T19:49:49.900Z,55.50
2018-07-22T19:52:22.405Z,55.90
2018-07-22T19:54:53.866Z,56.70
2018-07-22T19:57:27.205Z,56.40
2018-07-22T19:59:59.484Z,56.10
2018-07-22T20:02:31.989Z,55.70
2018-07-22T20:05:04.891Z,56.40
2018-07-22T20:07:38.454Z,56.30
2018-07-22T20:10:10.733Z,56.90
2018-07-22T20:12:43.109Z,56.50
2018-07-22T20:15:20.187Z,56.90
2018-07-22T20:17:52.281Z,56.70
2018-07-22T20:20:22.996Z,56.70
2018-07-22T20:25:39.841Z,58.00
2018-07-22T20:28:12.410Z,58.20
2018-07-22T20:30:44.756Z,60.40
2018-07-22T20:41:12.875Z,61.60
2018-07-22T20:43:44.864Z,60.00
2018-07-22T20:46:18.939Z,67.40
2018-07-22T20:48:50.943Z,67.80
2018-07-22T20:51:22.597Z,67.80
2018-07-22T20:54:02.425Z,65.10
2018-07-22T20:56:39.154Z,65.40
2018-07-22T20:59:11.372Z,64.10
2018-07-22T21:01:42.117Z,63.70
2018-07-22T21:04:14.018Z,64.10
2018-07-22T21:06:45.070Z,63.00
2018-07-22T21:09:15.374Z,65.00
2018-07-22T21:11:57.705Z,63.20
2018-07-22T21:14:27.837Z,63.60
2018-07-22T21:16:58.871Z,65.30
2018-07-22T21:19:31.006Z,66.70
2018-07-22T21:22:03.765Z,66.30
2018-07-22T21:24:36.620Z,65.90
2018-07-22T21:27:07.941Z,66.20
2018-07-22T21:29:39.195Z,66.00
2018-07-22T21:32:09.678Z,66.50
2018-07-22T21:34:42.097Z,66.20
2018-07-22T21:37:13.634Z,64.50
2018-07-22T21:39:47.138Z,64.80
2018-07-22T21:42:21.356Z,65.40
2018-07-22T21:44:53.297Z,65.70
2018-07-22T21:49:55.837Z,65.90
2018-07-22T21:52:30.345Z,68.40
2018-07-22T21:55:03.013Z,70.30
2018-07-22T21:57:34.764Z,70.10
2018-07-22T22:00:24.410Z,69.00
2018-07-22T22:02:54.847Z,70.50
2018-07-22T22:07:58.465Z,72.00
2018-07-22T22:10:30.110Z,69.70
2018-07-22T22:15:33.075Z,71.10
2018-07-22T22:18:05.589Z,70.50
2018-07-22T22:20:41.908Z,72.20
2018-07-22T22:23:13.294Z,70.90
2018-07-22T22:25:44.765Z,73.30
2018-07-22T22:28:17.175Z,72.60
2018-07-22T22:30:56.671Z,72.60
2018-07-22T22:33:28.913Z,73.60
2018-07-22T22:35:59.820Z,73.40
2018-07-22T22:38:32.980Z,73.20
2018-07-22T22:41:05.305Z,75.60
2018-07-22T22:43:36.118Z,74.80
2018-07-22T22:46:09.907Z,73.70
2018-07-22T22:48:44.271Z,74.20
2018-07-22T22:51:15.025Z,75.30
2018-07-22T22:56:22.920Z,77.40
2018-07-22T23:01:30.918Z,75.10
2018-07-22T23:06:33.294Z,76.30
2018-07-22T23:09:07.989Z,75.50
2018-07-22T23:11:40.481Z,75.00
2018-07-22T23:14:14.044Z,74.10
2018-07-22T23:16:44.912Z,76.30
2018-07-22T23:19:20.550Z,75.60
2018-07-22T23:21:51.463Z,75.70
2018-07-22T23:24:24.105Z,77.70
2018-07-22T23:26:57.013Z,77.00
2018-07-22T23:29:28.825Z,77.50
2018-07-22T23:32:00.613Z,78.30
2018-07-22T23:34:31.904Z,76.20
2018-07-22T23:37:03.813Z,77.80
2018-07-22T23:39:36.484Z,77.00
2018-07-22T23:42:13.139Z,77.70
2018-07-22T23:44:45.889Z,78.40
2018-07-22T23:47:18.531Z,77.30
2018-07-22T23:49:51.237Z,77.40
2018-07-22T23:52:22.910Z,79.00
2018-07-22T23:54:53.933Z,79.90
2018-07-22T23:57:25.080Z,78.30
2018-07-22T23:59:57.127Z,77.50
